sensor_id;sensor_type;location;lat;lon;timestamp;P1;durP1;ratioP1;P2;durP2;ratioP2
48263;SDS011;34086;51.076;13.722;2023-03-21T00:00:17;26.70;;;18.17;;
48263;SDS011;34086;51.076;13.722;2023-03-21T00:01:18;22.92;;;17.23;;
48263;SDS011;34086;51.076;13.722;2023-03-21T00:02:19;23.55;;;17.13;;
48263;SDS011;34086;51.076;13.722;2023-03-21T00:03:19;24.33;;;16.83;;
48263;SDS011;34086;51.076;13.722;2023-03-21T00:04:21;24.35;;;17.50;;
48263;SDS011;34086;51.076;13.722;2023-03-21T00:05:22;23.58;;;17.27;;
48263;SDS011;34086;51.076;13.722;2023-03-21T00:06:26;24.65;;;17.63;;
48263;SDS011;34086;51.076;13.722;2023-03-21T00:07:26;24.85;;;17.85;;
48263;SDS011;34086;51.076;13.722;2023-03-21T00:08:27;25.10;;;17.77;;
48263;SDS011;34086;51.076;13.722;2023-03-21T00:09:27;24.77;;;16.77;;
48263;SDS011;34086;51.076;13.722;2023-03-21T00:10:28;24.75;;;17.20;;
48263;SDS011;34086;51.076;13.722;2023-03-21T00:11:28;23.40;;;16.40;;
48263;SDS011;34086;51.076;13.722;2023-03-21T00:12:29;24.80;;;17.23;;
48263;SDS011;34086;51.076;13.722;2023-03-21T00:13:31;25.98;;;18.40;;
48263;SDS011;34086;51.076;13.722;2023-03-21T00:14:33;25.33;;;18.17;;
48263;SDS011;34086;51.076;13.722;2023-03-21T00:15:33;25.95;;;18.05;;
48263;SDS011;34086;51.076;13.722;2023-03-21T00:16:40;28.55;;;18.67;;
48263;SDS011;34086;51.076;13.722;2023-03-21T00:17:40;27.15;;;19.13;;
48263;SDS011;34086;51.076;13.722;2023-03-21T00:18:48;30.38;;;21.52;;
48263;SDS011;34086;51.076;13.722;2023-03-21T00:19:52;30.35;;;21.13;;
48263;SDS011;34086;51.076;13.722;2023-03-21T00:22:00;30.02;;;20.63;;
48263;SDS011;34086;51.076;13.722;2023-03-21T00:23:01;32.08;;;21.92;;
48263;SDS011;34086;51.076;13.722;2023-03-21T00:24:03;32.03;;;20.67;;
48263;SDS011;34086;51.076;13.722;2023-03-21T00:25:05;30.75;;;21.38;;
48263;SDS011;34086;51.076;13.722;2023-03-21T00:26:07;30.90;;;21.40;;
48263;SDS011;34086;51.076;13.722;2023-03-21T00:27:09;28.08;;;20.48;;
48263;SDS011;34086;51.076;13.722;2023-03-21T00:28:09;27.25;;;19.40;;
48263;SDS011;34086;51.076;13.722;2023-03-21T00:29:10;30.85;;;20.98;;
48263;SDS011;34086;51.076;13.722;2023-03-21T00:30:11;30.95;;;21.15;;
48263;SDS011;34086;51.076;13.722;2023-03-21T00:31:11;34.75;;;22.55;;
48263;SDS011;34086;51.076;13.722;2023-03-21T00:32:12;30.48;;;20.67;;
48263;SDS011;34086;51.076;13.722;2023-03-21T00:33:13;30.80;;;21.20;;
48263;SDS011;34086;51.076;13.722;2023-03-21T00:34:14;31.33;;;21.40;;
48263;SDS011;34086;51.076;13.722;2023-03-21T00:35:15;33.63;;;22.65;;
48263;SDS011;34086;51.076;13.722;2023-03-21T00:36:15;35.92;;;23.00;;
48263;SDS011;34086;51.076;13.722;2023-03-21T00:37:16;31.88;;;21.73;;
48263;SDS011;34086;51.076;13.722;2023-03-21T00:38:18;32.60;;;22.27;;
48263;SDS011;34086;51.076;13.722;2023-03-21T00:39:20;30.83;;;20.98;;
48263;SDS011;34086;51.076;13.722;2023-03-21T00:40:21;31.33;;;20.73;;
48263;SDS011;34086;51.076;13.722;2023-03-21T00:41:21;30.60;;;21.05;;
48263;SDS011;34086;51.076;13.722;2023-03-21T00:42:22;33.03;;;22.90;;
48263;SDS011;34086;51.076;13.722;2023-03-21T00:43:23;34.78;;;23.65;;
48263;SDS011;34086;51.076;13.722;2023-03-21T00:44:28;33.50;;;22.05;;
48263;SDS011;34086;51.076;13.722;2023-03-21T00:45:31;34.85;;;22.50;;
48263;SDS011;34086;51.076;13.722;2023-03-21T00:46:37;32.47;;;21.63;;
48263;SDS011;34086;51.076;13.722;2023-03-21T00:47:40;31.50;;;21.75;;
48263;SDS011;34086;51.076;13.722;2023-03-21T00:48:41;36.15;;;23.75;;
48263;SDS011;34086;51.076;13.722;2023-03-21T00:49:41;38.15;;;25.23;;
48263;SDS011;34086;51.076;13.722;2023-03-21T00:50:43;36.38;;;23.92;;
48263;SDS011;34086;51.076;13.722;2023-03-21T00:51:46;40.08;;;26.33;;
48263;SDS011;34086;51.076;13.722;2023-03-21T00:52:50;39.33;;;25.17;;
48263;SDS011;34086;51.076;13.722;2023-03-21T00:53:54;37.85;;;24.80;;
48263;SDS011;34086;51.076;13.722;2023-03-21T00:54:56;37.20;;;24.25;;
48263;SDS011;34086;51.076;13.722;2023-03-21T00:55:56;36.80;;;24.70;;
48263;SDS011;34086;51.076;13.722;2023-03-21T00:56:57;35.60;;;24.33;;
48263;SDS011;34086;51.076;13.722;2023-03-21T00:57:58;34.28;;;23.73;;
48263;SDS011;34086;51.076;13.722;2023-03-21T00:58:59;34.85;;;23.80;;
48263;SDS011;34086;51.076;13.722;2023-03-21T01:00:00;37.13;;;24.25;;
48263;SDS011;34086;51.076;13.722;2023-03-21T01:01:01;39.97;;;26.30;;
48263;SDS011;34086;51.076;13.722;2023-03-21T01:02:02;38.30;;;25.92;;
48263;SDS011;34086;51.076;13.722;2023-03-21T01:03:06;37.25;;;24.52;;
48263;SDS011;34086;51.076;13.722;2023-03-21T01:04:09;37.83;;;25.30;;
48263;SDS011;34086;51.076;13.722;2023-03-21T01:05:13;37.80;;;25.67;;
48263;SDS011;34086;51.076;13.722;2023-03-21T01:06:35;36.40;;;24.60;;
48263;SDS011;34086;51.076;13.722;2023-03-21T01:07:39;36.53;;;23.45;;
48263;SDS011;34086;51.076;13.722;2023-03-21T01:08:41;43.67;;;27.40;;
48263;SDS011;34086;51.076;13.722;2023-03-21T01:09:42;42.80;;;27.38;;
48263;SDS011;34086;51.076;13.722;2023-03-21T01:10:44;39.33;;;26.20;;
48263;SDS011;34086;51.076;13.722;2023-03-21T01:11:46;38.10;;;25.50;;
48263;SDS011;34086;51.076;13.722;2023-03-21T01:12:47;37.80;;;25.52;;
48263;SDS011;34086;51.076;13.722;2023-03-21T01:13:51;38.13;;;26.02;;
48263;SDS011;34086;51.076;13.722;2023-03-21T01:14:52;39.10;;;26.35;;
48263;SDS011;34086;51.076;13.722;2023-03-21T01:15:54;40.45;;;26.00;;
48263;SDS011;34086;51.076;13.722;2023-03-21T01:16:56;37.08;;;24.83;;
48263;SDS011;34086;51.076;13.722;2023-03-21T01:17:56;37.10;;;24.98;;
48263;SDS011;34086;51.076;13.722;2023-03-21T01:18:57;40.08;;;26.58;;
48263;SDS011;34086;51.076;13.722;2023-03-21T01:19:58;40.28;;;26.35;;
48263;SDS011;34086;51.076;13.722;2023-03-21T01:20:59;41.72;;;26.95;;
48263;SDS011;34086;51.076;13.722;2023-03-21T01:22:00;44.92;;;29.05;;
48263;SDS011;34086;51.076;13.722;2023-03-21T01:23:01;49.88;;;31.40;;
48263;SDS011;34086;51.076;13.722;2023-03-21T01:24:02;43.25;;;28.73;;
48263;SDS011;34086;51.076;13.722;2023-03-21T01:25:03;41.38;;;27.55;;
48263;SDS011;34086;51.076;13.722;2023-03-21T01:26:03;39.95;;;26.73;;
48263;SDS011;34086;51.076;13.722;2023-03-21T01:27:05;38.33;;;26.33;;
48263;SDS011;34086;51.076;13.722;2023-03-21T01:28:06;39.90;;;26.52;;
48263;SDS011;34086;51.076;13.722;2023-03-21T01:29:07;40.05;;;27.17;;
48263;SDS011;34086;51.076;13.722;2023-03-21T01:30:09;41.63;;;27.55;;
48263;SDS011;34086;51.076;13.722;2023-03-21T01:31:12;42.97;;;28.80;;
48263;SDS011;34086;51.076;13.722;2023-03-21T01:32:15;41.72;;;27.73;;
48263;SDS011;34086;51.076;13.722;2023-03-21T01:33:16;46.95;;;29.83;;
48263;SDS011;34086;51.076;13.722;2023-03-21T01:34:17;42.20;;;28.45;;
48263;SDS011;34086;51.076;13.722;2023-03-21T01:35:18;43.53;;;28.60;;
48263;SDS011;34086;51.076;13.722;2023-03-21T01:36:20;41.45;;;28.08;;
48263;SDS011;34086;51.076;13.722;2023-03-21T01:37:23;40.90;;;27.60;;
48263;SDS011;34086;51.076;13.722;2023-03-21T01:38:25;39.83;;;26.20;;
48263;SDS011;34086;51.076;13.722;2023-03-21T01:39:26;39.72;;;26.42;;
48263;SDS011;34086;51.076;13.722;2023-03-21T01:40:27;41.13;;;27.40;;
48263;SDS011;34086;51.076;13.722;2023-03-21T01:41:40;40.80;;;26.92;;
48263;SDS011;34086;51.076;13.722;2023-03-21T01:42:48;41.15;;;27.60;;
48263;SDS011;34086;51.076;13.722;2023-03-21T01:43:51;41.25;;;27.00;;
48263;SDS011;34086;51.076;13.722;2023-03-21T01:44:56;39.80;;;26.88;;
48263;SDS011;34086;51.076;13.722;2023-03-21T01:48:26;38.70;;;24.90;;
48263;SDS011;34086;51.076;13.722;2023-03-21T01:49:32;40.65;;;26.27;;
48263;SDS011;34086;51.076;13.722;2023-03-21T01:51:02;40.38;;;26.60;;
48263;SDS011;34086;51.076;13.722;2023-03-21T01:52:10;40.50;;;26.00;;
48263;SDS011;34086;51.076;13.722;2023-03-21T01:53:15;40.72;;;26.80;;
48263;SDS011;34086;51.076;13.722;2023-03-21T01:54:22;40.70;;;26.15;;
48263;SDS011;34086;51.076;13.722;2023-03-21T01:55:26;41.40;;;26.52;;
48263;SDS011;34086;51.076;13.722;2023-03-21T01:56:34;41.20;;;26.90;;
48263;SDS011;34086;51.076;13.722;2023-03-21T01:57:48;43.25;;;28.17;;
48263;SDS011;34086;51.076;13.722;2023-03-21T01:58:55;42.58;;;27.77;;
48263;SDS011;34086;51.076;13.722;2023-03-21T02:00:23;39.80;;;26.98;;
48263;SDS011;34086;51.076;13.722;2023-03-21T02:01:36;43.33;;;28.15;;
48263;SDS011;34086;51.076;13.722;2023-03-21T02:02:43;46.38;;;28.83;;
48263;SDS011;34086;51.076;13.722;2023-03-21T02:04:09;43.33;;;28.60;;
48263;SDS011;34086;51.076;13.722;2023-03-21T02:05:17;43.33;;;28.33;;
48263;SDS011;34086;51.076;13.722;2023-03-21T02:06:27;43.60;;;28.40;;
48263;SDS011;34086;51.076;13.722;2023-03-21T02:07:45;44.40;;;28.20;;
48263;SDS011;34086;51.076;13.722;2023-03-21T02:08:50;47.47;;;30.02;;
48263;SDS011;34086;51.076;13.722;2023-03-21T02:09:52;44.55;;;28.85;;
48263;SDS011;34086;51.076;13.722;2023-03-21T02:10:56;43.70;;;28.80;;
48263;SDS011;34086;51.076;13.722;2023-03-21T02:12:09;44.40;;;27.58;;
48263;SDS011;34086;51.076;13.722;2023-03-21T02:13:10;43.15;;;27.95;;
48263;SDS011;34086;51.076;13.722;2023-03-21T02:14:14;41.10;;;27.30;;
48263;SDS011;34086;51.076;13.722;2023-03-21T02:15:27;39.53;;;26.30;;
48263;SDS011;34086;51.076;13.722;2023-03-21T02:16:42;43.53;;;28.65;;
48263;SDS011;34086;51.076;13.722;2023-03-21T02:17:53;41.42;;;27.80;;
48263;SDS011;34086;51.076;13.722;2023-03-21T02:19:15;41.53;;;27.42;;
48263;SDS011;34086;51.076;13.722;2023-03-21T02:23:23;41.05;;;26.15;;
48263;SDS011;34086;51.076;13.722;2023-03-21T02:27:49;44.05;;;27.98;;
48263;SDS011;34086;51.076;13.722;2023-03-21T02:29:08;45.85;;;29.17;;
48263;SDS011;34086;51.076;13.722;2023-03-21T02:31:46;47.65;;;30.35;;
48263;SDS011;34086;51.076;13.722;2023-03-21T02:34:48;44.13;;;28.85;;
48263;SDS011;34086;51.076;13.722;2023-03-21T02:37:17;42.65;;;28.45;;
48263;SDS011;34086;51.076;13.722;2023-03-21T02:38:26;42.97;;;28.27;;
48263;SDS011;34086;51.076;13.722;2023-03-21T02:39:53;39.38;;;26.35;;
48263;SDS011;34086;51.076;13.722;2023-03-21T02:41:34;38.90;;;26.50;;
48263;SDS011;34086;51.076;13.722;2023-03-21T02:44:05;43.30;;;29.58;;
48263;SDS011;34086;51.076;13.722;2023-03-21T02:45:18;43.75;;;29.13;;
48263;SDS011;34086;51.076;13.722;2023-03-21T02:46:41;40.13;;;27.60;;
48263;SDS011;34086;51.076;13.722;2023-03-21T02:47:58;42.28;;;29.23;;
48263;SDS011;34086;51.076;13.722;2023-03-21T02:49:12;40.45;;;28.35;;
48263;SDS011;34086;51.076;13.722;2023-03-21T02:50:33;42.80;;;29.73;;
48263;SDS011;34086;51.076;13.722;2023-03-21T02:51:41;43.17;;;29.77;;
48263;SDS011;34086;51.076;13.722;2023-03-21T02:52:44;47.50;;;31.45;;
48263;SDS011;34086;51.076;13.722;2023-03-21T02:53:48;43.00;;;29.05;;
48263;SDS011;34086;51.076;13.722;2023-03-21T02:54:54;45.83;;;31.30;;
48263;SDS011;34086;51.076;13.722;2023-03-21T02:56:03;46.58;;;30.40;;
48263;SDS011;34086;51.076;13.722;2023-03-21T02:57:09;45.67;;;31.75;;
48263;SDS011;34086;51.076;13.722;2023-03-21T02:58:14;43.28;;;31.40;;
48263;SDS011;34086;51.076;13.722;2023-03-21T02:59:23;43.35;;;30.17;;
48263;SDS011;34086;51.076;13.722;2023-03-21T03:00:30;46.40;;;31.65;;
48263;SDS011;34086;51.076;13.722;2023-03-21T03:01:32;45.35;;;31.13;;
48263;SDS011;34086;51.076;13.722;2023-03-21T03:02:34;46.15;;;30.52;;
48263;SDS011;34086;51.076;13.722;2023-03-21T03:03:35;45.50;;;31.20;;
48263;SDS011;34086;51.076;13.722;2023-03-21T03:04:38;42.47;;;29.83;;
48263;SDS011;34086;51.076;13.722;2023-03-21T03:05:41;46.53;;;32.00;;
48263;SDS011;34086;51.076;13.722;2023-03-21T03:12:21;44.10;;;30.00;;
48263;SDS011;34086;51.076;13.722;2023-03-21T03:13:38;42.67;;;28.75;;
48263;SDS011;34086;51.076;13.722;2023-03-21T03:16:39;41.53;;;29.10;;
48263;SDS011;34086;51.076;13.722;2023-03-21T03:18:11;42.75;;;29.67;;
48263;SDS011;34086;51.076;13.722;2023-03-21T03:19:28;41.45;;;28.95;;
48263;SDS011;34086;51.076;13.722;2023-03-21T03:20:35;41.75;;;30.35;;
48263;SDS011;34086;51.076;13.722;2023-03-21T03:21:58;45.75;;;30.70;;
48263;SDS011;34086;51.076;13.722;2023-03-21T03:24:25;42.78;;;30.13;;
48263;SDS011;34086;51.076;13.722;2023-03-21T03:25:35;44.92;;;31.20;;
48263;SDS011;34086;51.076;13.722;2023-03-21T03:26:44;42.67;;;29.25;;
48263;SDS011;34086;51.076;13.722;2023-03-21T03:27:49;43.75;;;30.15;;
48263;SDS011;34086;51.076;13.722;2023-03-21T03:28:53;45.75;;;31.13;;
48263;SDS011;34086;51.076;13.722;2023-03-21T03:29:58;45.92;;;31.33;;
48263;SDS011;34086;51.076;13.722;2023-03-21T03:31:02;42.17;;;29.00;;
48263;SDS011;34086;51.076;13.722;2023-03-21T03:32:06;48.78;;;33.45;;
48263;SDS011;34086;51.076;13.722;2023-03-21T03:33:16;43.80;;;30.67;;
48263;SDS011;34086;51.076;13.722;2023-03-21T03:34:22;42.88;;;29.88;;
48263;SDS011;34086;51.076;13.722;2023-03-21T03:35:28;40.30;;;29.27;;
48263;SDS011;34086;51.076;13.722;2023-03-21T03:36:30;41.17;;;29.30;;
48263;SDS011;34086;51.076;13.722;2023-03-21T03:37:46;42.22;;;29.52;;
48263;SDS011;34086;51.076;13.722;2023-03-21T03:38:50;41.83;;;28.98;;
48263;SDS011;34086;51.076;13.722;2023-03-21T03:39:54;42.42;;;30.70;;
48263;SDS011;34086;51.076;13.722;2023-03-21T03:41:01;41.50;;;30.08;;
48263;SDS011;34086;51.076;13.722;2023-03-21T03:42:18;41.55;;;29.88;;
48263;SDS011;34086;51.076;13.722;2023-03-21T03:43:29;41.42;;;29.27;;
48263;SDS011;34086;51.076;13.722;2023-03-21T03:44:36;39.60;;;28.85;;
48263;SDS011;34086;51.076;13.722;2023-03-21T03:45:41;39.08;;;28.17;;
48263;SDS011;34086;51.076;13.722;2023-03-21T03:46:49;42.75;;;30.50;;
48263;SDS011;34086;51.076;13.722;2023-03-21T03:48:00;43.00;;;30.60;;
48263;SDS011;34086;51.076;13.722;2023-03-21T03:49:15;43.10;;;30.02;;
48263;SDS011;34086;51.076;13.722;2023-03-21T03:50:25;43.88;;;30.42;;
48263;SDS011;34086;51.076;13.722;2023-03-21T03:51:35;41.78;;;29.00;;
48263;SDS011;34086;51.076;13.722;2023-03-21T03:54:26;41.58;;;28.75;;
48263;SDS011;34086;51.076;13.722;2023-03-21T03:55:50;45.13;;;31.08;;
48263;SDS011;34086;51.076;13.722;2023-03-21T03:56:54;46.75;;;31.00;;
48263;SDS011;34086;51.076;13.722;2023-03-21T03:57:56;46.70;;;31.48;;
48263;SDS011;34086;51.076;13.722;2023-03-21T03:58:56;45.38;;;31.20;;
48263;SDS011;34086;51.076;13.722;2023-03-21T04:00:11;48.85;;;31.35;;
48263;SDS011;34086;51.076;13.722;2023-03-21T04:01:17;45.45;;;31.52;;
48263;SDS011;34086;51.076;13.722;2023-03-21T04:02:18;45.83;;;31.27;;
48263;SDS011;34086;51.076;13.722;2023-03-21T04:03:19;44.33;;;30.42;;
48263;SDS011;34086;51.076;13.722;2023-03-21T04:04:22;45.47;;;31.55;;
48263;SDS011;34086;51.076;13.722;2023-03-21T04:05:28;44.08;;;30.48;;
48263;SDS011;34086;51.076;13.722;2023-03-21T04:06:29;46.38;;;32.08;;
48263;SDS011;34086;51.076;13.722;2023-03-21T04:07:31;44.20;;;31.85;;
48263;SDS011;34086;51.076;13.722;2023-03-21T04:08:34;47.17;;;31.33;;
48263;SDS011;34086;51.076;13.722;2023-03-21T04:09:36;46.78;;;31.95;;
48263;SDS011;34086;51.076;13.722;2023-03-21T04:10:37;45.90;;;31.33;;
48263;SDS011;34086;51.076;13.722;2023-03-21T04:11:38;44.70;;;31.00;;
48263;SDS011;34086;51.076;13.722;2023-03-21T04:12:39;45.35;;;31.08;;
48263;SDS011;34086;51.076;13.722;2023-03-21T04:13:51;47.05;;;32.05;;
48263;SDS011;34086;51.076;13.722;2023-03-21T04:14:55;45.65;;;31.63;;
48263;SDS011;34086;51.076;13.722;2023-03-21T04:15:56;47.22;;;32.20;;
48263;SDS011;34086;51.076;13.722;2023-03-21T04:16:56;44.33;;;31.70;;
48263;SDS011;34086;51.076;13.722;2023-03-21T04:17:57;50.10;;;33.15;;
48263;SDS011;34086;51.076;13.722;2023-03-21T04:18:58;48.75;;;32.47;;
48263;SDS011;34086;51.076;13.722;2023-03-21T04:19:58;49.45;;;32.90;;
48263;SDS011;34086;51.076;13.722;2023-03-21T04:20:59;47.05;;;32.25;;
48263;SDS011;34086;51.076;13.722;2023-03-21T04:22:02;48.33;;;32.78;;
48263;SDS011;34086;51.076;13.722;2023-03-21T04:23:05;47.15;;;32.55;;
48263;SDS011;34086;51.076;13.722;2023-03-21T04:24:07;44.95;;;31.08;;
48263;SDS011;34086;51.076;13.722;2023-03-21T04:25:07;47.75;;;32.25;;
48263;SDS011;34086;51.076;13.722;2023-03-21T04:26:09;47.97;;;33.25;;
48263;SDS011;34086;51.076;13.722;2023-03-21T04:27:17;47.85;;;32.25;;
48263;SDS011;34086;51.076;13.722;2023-03-21T04:28:35;48.67;;;32.22;;
48263;SDS011;34086;51.076;13.722;2023-03-21T04:29:54;45.92;;;31.38;;
48263;SDS011;34086;51.076;13.722;2023-03-21T04:31:07;46.80;;;31.80;;
48263;SDS011;34086;51.076;13.722;2023-03-21T04:32:18;46.95;;;32.45;;
48263;SDS011;34086;51.076;13.722;2023-03-21T04:33:30;47.17;;;32.25;;
48263;SDS011;34086;51.076;13.722;2023-03-21T04:34:30;46.25;;;31.98;;
48263;SDS011;34086;51.076;13.722;2023-03-21T04:35:35;47.20;;;32.60;;
48263;SDS011;34086;51.076;13.722;2023-03-21T04:36:37;47.67;;;32.95;;
48263;SDS011;34086;51.076;13.722;2023-03-21T04:37:40;48.88;;;32.72;;
48263;SDS011;34086;51.076;13.722;2023-03-21T04:38:46;49.30;;;32.35;;
48263;SDS011;34086;51.076;13.722;2023-03-21T04:39:49;45.85;;;31.58;;
48263;SDS011;34086;51.076;13.722;2023-03-21T04:40:50;46.40;;;31.67;;
48263;SDS011;34086;51.076;13.722;2023-03-21T04:41:51;50.42;;;33.50;;
48263;SDS011;34086;51.076;13.722;2023-03-21T04:42:52;48.97;;;33.53;;
48263;SDS011;34086;51.076;13.722;2023-03-21T04:43:53;47.00;;;32.85;;
48263;SDS011;34086;51.076;13.722;2023-03-21T04:44:55;47.35;;;33.08;;
48263;SDS011;34086;51.076;13.722;2023-03-21T04:45:57;51.30;;;33.50;;
48263;SDS011;34086;51.076;13.722;2023-03-21T04:46:57;47.20;;;32.70;;
48263;SDS011;34086;51.076;13.722;2023-03-21T04:47:58;49.67;;;33.72;;
48263;SDS011;34086;51.076;13.722;2023-03-21T04:48:59;48.65;;;33.08;;
48263;SDS011;34086;51.076;13.722;2023-03-21T04:50:00;50.60;;;33.97;;
48263;SDS011;34086;51.076;13.722;2023-03-21T04:51:01;47.83;;;33.58;;
48263;SDS011;34086;51.076;13.722;2023-03-21T04:52:02;49.35;;;34.25;;
48263;SDS011;34086;51.076;13.722;2023-03-21T04:53:03;49.33;;;33.83;;
48263;SDS011;34086;51.076;13.722;2023-03-21T04:54:03;48.13;;;33.28;;
48263;SDS011;34086;51.076;13.722;2023-03-21T04:55:04;48.60;;;33.05;;
48263;SDS011;34086;51.076;13.722;2023-03-21T04:56:09;47.85;;;33.25;;
48263;SDS011;34086;51.076;13.722;2023-03-21T04:57:10;48.63;;;33.00;;
48263;SDS011;34086;51.076;13.722;2023-03-21T04:58:11;49.90;;;34.17;;
48263;SDS011;34086;51.076;13.722;2023-03-21T04:59:12;49.22;;;34.17;;
48263;SDS011;34086;51.076;13.722;2023-03-21T05:00:14;51.28;;;34.50;;
48263;SDS011;34086;51.076;13.722;2023-03-21T05:01:15;49.03;;;33.45;;
48263;SDS011;34086;51.076;13.722;2023-03-21T05:02:19;49.28;;;33.20;;
48263;SDS011;34086;51.076;13.722;2023-03-21T05:03:20;46.92;;;32.72;;
48263;SDS011;34086;51.076;13.722;2023-03-21T05:04:21;56.47;;;36.63;;
48263;SDS011;34086;51.076;13.722;2023-03-21T05:05:23;54.90;;;35.83;;
48263;SDS011;34086;51.076;13.722;2023-03-21T05:06:25;54.42;;;35.75;;
48263;SDS011;34086;51.076;13.722;2023-03-21T05:07:27;52.17;;;34.10;;
48263;SDS011;34086;51.076;13.722;2023-03-21T05:08:28;58.08;;;38.28;;
48263;SDS011;34086;51.076;13.722;2023-03-21T05:09:28;54.88;;;36.33;;
48263;SDS011;34086;51.076;13.722;2023-03-21T05:10:29;51.05;;;33.88;;
48263;SDS011;34086;51.076;13.722;2023-03-21T05:11:31;52.60;;;36.05;;
48263;SDS011;34086;51.076;13.722;2023-03-21T05:12:35;51.83;;;35.05;;
48263;SDS011;34086;51.076;13.722;2023-03-21T05:13:36;51.00;;;34.03;;
48263;SDS011;34086;51.076;13.722;2023-03-21T05:14:36;50.42;;;34.55;;
48263;SDS011;34086;51.076;13.722;2023-03-21T05:15:38;50.17;;;33.47;;
48263;SDS011;34086;51.076;13.722;2023-03-21T05:16:40;50.47;;;33.65;;
48263;SDS011;34086;51.076;13.722;2023-03-21T05:17:49;49.47;;;33.00;;
48263;SDS011;34086;51.076;13.722;2023-03-21T05:18:49;49.30;;;33.53;;
48263;SDS011;34086;51.076;13.722;2023-03-21T05:19:53;51.25;;;34.28;;
48263;SDS011;34086;51.076;13.722;2023-03-21T05:20:55;50.50;;;33.65;;
48263;SDS011;34086;51.076;13.722;2023-03-21T05:21:57;53.67;;;34.65;;
48263;SDS011;34086;51.076;13.722;2023-03-21T05:23:00;49.53;;;33.22;;
48263;SDS011;34086;51.076;13.722;2023-03-21T05:24:00;47.50;;;32.10;;
48263;SDS011;34086;51.076;13.722;2023-03-21T05:25:03;46.92;;;31.55;;
48263;SDS011;34086;51.076;13.722;2023-03-21T05:26:19;47.75;;;31.13;;
48263;SDS011;34086;51.076;13.722;2023-03-21T05:27:29;50.00;;;32.05;;
48263;SDS011;34086;51.076;13.722;2023-03-21T05:28:42;46.53;;;31.23;;
48263;SDS011;34086;51.076;13.722;2023-03-21T05:29:44;48.33;;;31.77;;
48263;SDS011;34086;51.076;13.722;2023-03-21T05:30:45;49.30;;;31.42;;
48263;SDS011;34086;51.076;13.722;2023-03-21T05:31:46;44.40;;;30.13;;
48263;SDS011;34086;51.076;13.722;2023-03-21T05:32:48;48.20;;;31.83;;
48263;SDS011;34086;51.076;13.722;2023-03-21T05:33:50;48.33;;;30.60;;
48263;SDS011;34086;51.076;13.722;2023-03-21T05:34:52;43.58;;;29.35;;
48263;SDS011;34086;51.076;13.722;2023-03-21T05:35:55;45.63;;;29.90;;
48263;SDS011;34086;51.076;13.722;2023-03-21T05:36:57;41.55;;;28.40;;
48263;SDS011;34086;51.076;13.722;2023-03-21T05:38:03;41.72;;;27.73;;
48263;SDS011;34086;51.076;13.722;2023-03-21T05:39:09;40.30;;;27.77;;
48263;SDS011;34086;51.076;13.722;2023-03-21T05:40:15;38.97;;;27.85;;
48263;SDS011;34086;51.076;13.722;2023-03-21T05:41:18;40.65;;;26.65;;
48263;SDS011;34086;51.076;13.722;2023-03-21T05:42:20;38.30;;;26.63;;
48263;SDS011;34086;51.076;13.722;2023-03-21T05:43:22;37.95;;;26.08;;
48263;SDS011;34086;51.076;13.722;2023-03-21T05:44:22;36.63;;;25.77;;
48263;SDS011;34086;51.076;13.722;2023-03-21T05:45:23;36.00;;;25.48;;
48263;SDS011;34086;51.076;13.722;2023-03-21T05:46:24;37.53;;;25.50;;
48263;SDS011;34086;51.076;13.722;2023-03-21T05:47:25;38.35;;;27.25;;
48263;SDS011;34086;51.076;13.722;2023-03-21T05:48:27;41.88;;;26.10;;
48263;SDS011;34086;51.076;13.722;2023-03-21T05:49:40;37.88;;;24.63;;
48263;SDS011;34086;51.076;13.722;2023-03-21T05:50:41;38.22;;;26.70;;
48263;SDS011;34086;51.076;13.722;2023-03-21T05:51:47;36.85;;;25.73;;
48263;SDS011;34086;51.076;13.722;2023-03-21T05:52:48;40.65;;;27.30;;
48263;SDS011;34086;51.076;13.722;2023-03-21T05:53:48;35.60;;;25.50;;
48263;SDS011;34086;51.076;13.722;2023-03-21T05:54:50;36.15;;;25.05;;
48263;SDS011;34086;51.076;13.722;2023-03-21T05:55:54;32.83;;;22.75;;
48263;SDS011;34086;51.076;13.722;2023-03-21T05:57:12;31.40;;;22.15;;
48263;SDS011;34086;51.076;13.722;2023-03-21T05:58:25;29.45;;;20.85;;
48263;SDS011;34086;51.076;13.722;2023-03-21T05:59:26;31.25;;;21.40;;
48263;SDS011;34086;51.076;13.722;2023-03-21T06:00:28;29.98;;;21.45;;
48263;SDS011;34086;51.076;13.722;2023-03-21T06:01:46;35.30;;;21.27;;
48263;SDS011;34086;51.076;13.722;2023-03-21T06:02:49;34.80;;;21.08;;
48263;SDS011;34086;51.076;13.722;2023-03-21T06:04:05;32.97;;;21.13;;
48263;SDS011;34086;51.076;13.722;2023-03-21T06:05:07;29.80;;;19.33;;
48263;SDS011;34086;51.076;13.722;2023-03-21T06:06:08;29.95;;;19.08;;
48263;SDS011;34086;51.076;13.722;2023-03-21T06:07:14;26.15;;;18.48;;
48263;SDS011;34086;51.076;13.722;2023-03-21T06:08:15;28.35;;;18.60;;
48263;SDS011;34086;51.076;13.722;2023-03-21T06:09:19;27.23;;;17.98;;
48263;SDS011;34086;51.076;13.722;2023-03-21T06:10:26;25.50;;;17.48;;
48263;SDS011;34086;51.076;13.722;2023-03-21T06:11:28;25.73;;;18.13;;
48263;SDS011;34086;51.076;13.722;2023-03-21T06:12:50;25.63;;;17.17;;
48263;SDS011;34086;51.076;13.722;2023-03-21T06:14:06;22.25;;;16.67;;
48263;SDS011;34086;51.076;13.722;2023-03-21T06:15:07;24.17;;;17.27;;
48263;SDS011;34086;51.076;13.722;2023-03-21T06:16:12;25.88;;;17.52;;
48263;SDS011;34086;51.076;13.722;2023-03-21T06:17:13;25.25;;;17.17;;
48263;SDS011;34086;51.076;13.722;2023-03-21T06:18:20;23.70;;;16.65;;
48263;SDS011;34086;51.076;13.722;2023-03-21T06:19:28;24.95;;;16.33;;
48263;SDS011;34086;51.076;13.722;2023-03-21T06:20:36;25.58;;;17.17;;
48263;SDS011;34086;51.076;13.722;2023-03-21T06:21:42;25.50;;;17.48;;
48263;SDS011;34086;51.076;13.722;2023-03-21T06:22:42;24.55;;;17.00;;
48263;SDS011;34086;51.076;13.722;2023-03-21T06:23:44;24.20;;;17.23;;
48263;SDS011;34086;51.076;13.722;2023-03-21T06:24:45;25.88;;;17.60;;
48263;SDS011;34086;51.076;13.722;2023-03-21T06:25:46;26.00;;;17.08;;
48263;SDS011;34086;51.076;13.722;2023-03-21T06:26:48;26.02;;;16.98;;
48263;SDS011;34086;51.076;13.722;2023-03-21T06:27:48;25.35;;;18.13;;
48263;SDS011;34086;51.076;13.722;2023-03-21T06:28:50;24.05;;;17.20;;
48263;SDS011;34086;51.076;13.722;2023-03-21T06:29:51;25.58;;;16.80;;
48263;SDS011;34086;51.076;13.722;2023-03-21T06:30:53;27.40;;;18.27;;
48263;SDS011;34086;51.076;13.722;2023-03-21T06:31:57;26.20;;;17.63;;
48263;SDS011;34086;51.076;13.722;2023-03-21T06:32:58;24.30;;;16.17;;
48263;SDS011;34086;51.076;13.722;2023-03-21T06:33:59;26.80;;;16.40;;
48263;SDS011;34086;51.076;13.722;2023-03-21T06:35:00;23.35;;;15.10;;
48263;SDS011;34086;51.076;13.722;2023-03-21T06:36:01;23.08;;;14.60;;
48263;SDS011;34086;51.076;13.722;2023-03-21T06:37:02;23.55;;;15.07;;
48263;SDS011;34086;51.076;13.722;2023-03-21T06:38:06;22.48;;;14.55;;
48263;SDS011;34086;51.076;13.722;2023-03-21T06:39:07;19.38;;;13.07;;
48263;SDS011;34086;51.076;13.722;2023-03-21T06:40:12;17.40;;;12.30;;